aviador You're here:

OMDB Decoded Metar

DUBAI in UNITED ARAB EMIRATES
Report Time2017-11-20 21:00:00
UTC Time2017-11-20 21:18:08
Flight Rules vfr VFR
Wind080° at 04 kt
W.Decomp.*RWY 12: 3.0 kt HW 2.6 kt LCW
W.Rank080° ranks 10
Current wind is below 080° avg. (5.7)
Visibility9999 m
Phenomena:N/A
Clouds:N/A
Expected CloudBase > 5,600 ft AGL from Temp-Dew spread
CeilingNone
Temp24°C (ISA +9)
Dew Point10°C (41% RH)
AAT22.6°C
QNH1017 hPa
Density Alt1,096 ft
Elevation16 ft
Report Wrong Elevation
Raw Report
METAR OMDB 202100Z 08004KT 050V120 CAVOK 24/10 Q1017 NOSIG=

Extra information for OMDB:More info

Metar Taf Metar & Taf Last 4 Metars F.Rules Stats Wind Profile Meteogram Temp Stats Airport Information Weather charts Add Link Nearby VenuesMetar ALERT Operation Metar Decoded Social comments